York, Alabama
Current Conditions -  °F | °C
As of 9:56 PM on Tuesday 21 Oct 2014 (Local Time) from KNMM Reporting Station
Clear Clear  
Wind Chill: 60°   Ceiling: Unl
Heat Index: 60°   Visibility: 10mi
Dew Point: 55°   Wind: 3mph
Humidity: 83%   Direction: 330°NNW
Pressure: 30.05"   Gusts: NA
Location:  32.49°N, 88.3°W
Report Text: KNMM 220256Z 33003KT 10SM CLR 16/13 A3005 RMK AO2 SLP186 T01560128 53017 $
Loading
Personal Weather Stations






























Interactive Weather Map
Tropical Storm Tracking
New forecast layout! Learn more

10-Day Weather Forecast

Advertisements
Track Severe Weather on mobile